sensor_id;sensor_type;location;lat;lon;timestamp;pressure;altitude;pressure_sealevel;temperature;humidity
80781;BME280;70341;56.408;10.874;2023-09-18T00:00:16;101554.64;;;17.81;66.24
80781;BME280;70341;56.408;10.874;2023-09-18T00:03:04;101528.98;;;17.80;66.44
80781;BME280;70341;56.408;10.874;2023-09-18T00:05:31;101542.10;;;17.80;66.59
80781;BME280;70341;56.408;10.874;2023-09-18T00:07:58;101540.88;;;17.77;66.44
80781;BME280;70341;56.408;10.874;2023-09-18T00:10:26;101542.20;;;17.76;66.40
80781;BME280;70341;56.408;10.874;2023-09-18T00:12:53;101536.88;;;17.77;66.61
80781;BME280;70341;56.408;10.874;2023-09-18T00:15:20;101533.89;;;17.79;66.16
80781;BME280;70341;56.408;10.874;2023-09-18T00:17:49;101525.98;;;17.79;66.45
80781;BME280;70341;56.408;10.874;2023-09-18T00:20:16;101512.26;;;17.77;65.92
80781;BME280;70341;56.408;10.874;2023-09-18T00:22:43;101506.96;;;17.76;65.77
80781;BME280;70341;56.408;10.874;2023-09-18T00:25:11;101485.20;;;17.73;66.25
80781;BME280;70341;56.408;10.874;2023-09-18T00:27:38;101478.46;;;17.74;66.32
80781;BME280;70341;56.408;10.874;2023-09-18T00:30:06;101471.80;;;17.74;66.99
80781;BME280;70341;56.408;10.874;2023-09-18T00:32:34;101469.54;;;17.73;66.98
80781;BME280;70341;56.408;10.874;2023-09-18T00:35:01;101466.94;;;17.71;66.70
80781;BME280;70341;56.408;10.874;2023-09-18T00:37:29;101460.52;;;17.70;66.53
80781;BME280;70341;56.408;10.874;2023-09-18T00:39:57;101470.60;;;17.70;66.60
80781;BME280;70341;56.408;10.874;2023-09-18T00:42:25;101483.35;;;17.70;66.32
80781;BME280;70341;56.408;10.874;2023-09-18T00:44:52;101484.72;;;17.72;66.05
80781;BME280;70341;56.408;10.874;2023-09-18T00:47:20;101481.77;;;17.69;66.78
80781;BME280;70341;56.408;10.874;2023-09-18T00:49:50;101484.45;;;17.69;67.10
80781;BME280;70341;56.408;10.874;2023-09-18T00:52:21;101485.20;;;17.69;67.16
80781;BME280;70341;56.408;10.874;2023-09-18T00:54:51;101479.84;;;17.68;67.01
80781;BME280;70341;56.408;10.874;2023-09-18T00:57:20;101476.05;;;17.69;67.66
80781;BME280;70341;56.408;10.874;2023-09-18T00:59:47;101480.95;;;17.68;68.14
80781;BME280;70341;56.408;10.874;2023-09-18T01:02:14;101478.32;;;17.66;67.78
80781;BME280;70341;56.408;10.874;2023-09-18T01:04:43;101478.08;;;17.64;68.15
80781;BME280;70341;56.408;10.874;2023-09-18T01:07:10;101478.63;;;17.64;67.43
80781;BME280;70341;56.408;10.874;2023-09-18T01:09:38;101464.09;;;17.64;67.74
80781;BME280;70341;56.408;10.874;2023-09-18T01:12:26;101459.90;;;17.62;68.99
80781;BME280;70341;56.408;10.874;2023-09-18T01:15:09;101458.75;;;17.57;70.15
80781;BME280;70341;56.408;10.874;2023-09-18T01:17:40;101438.23;;;17.48;71.04
80781;BME280;70341;56.408;10.874;2023-09-18T01:20:12;101436.14;;;17.38;72.76
80781;BME280;70341;56.408;10.874;2023-09-18T01:22:40;101430.75;;;17.22;74.43
80781;BME280;70341;56.408;10.874;2023-09-18T01:25:08;101419.89;;;17.04;74.78
80781;BME280;70341;56.408;10.874;2023-09-18T01:27:35;101418.29;;;16.91;74.95
80781;BME280;70341;56.408;10.874;2023-09-18T01:30:03;101403.77;;;16.78;74.89
80781;BME280;70341;56.408;10.874;2023-09-18T01:32:34;101403.23;;;16.68;74.88
80781;BME280;70341;56.408;10.874;2023-09-18T01:35:06;101388.79;;;16.66;75.23
80781;BME280;70341;56.408;10.874;2023-09-18T01:37:33;101386.21;;;16.64;76.10
80781;BME280;70341;56.408;10.874;2023-09-18T01:40:05;101372.16;;;16.65;76.38
80781;BME280;70341;56.408;10.874;2023-09-18T01:42:34;101368.27;;;16.68;76.03
80781;BME280;70341;56.408;10.874;2023-09-18T01:45:03;101354.63;;;16.71;75.62
80781;BME280;70341;56.408;10.874;2023-09-18T01:47:30;101334.77;;;16.73;75.05
80781;BME280;70341;56.408;10.874;2023-09-18T01:49:57;101347.20;;;16.75;74.49
80781;BME280;70341;56.408;10.874;2023-09-18T01:52:26;101346.08;;;16.79;74.52
80781;BME280;70341;56.408;10.874;2023-09-18T01:54:53;101338.77;;;16.82;74.58
80781;BME280;70341;56.408;10.874;2023-09-18T01:57:20;101339.58;;;16.83;74.47
80781;BME280;70341;56.408;10.874;2023-09-18T01:59:48;101333.92;;;16.85;74.41
80781;BME280;70341;56.408;10.874;2023-09-18T02:02:15;101350.41;;;16.88;74.12
80781;BME280;70341;56.408;10.874;2023-09-18T02:04:55;101344.23;;;16.93;74.07
80781;BME280;70341;56.408;10.874;2023-09-18T02:07:36;101338.34;;;16.99;74.23
80781;BME280;70341;56.408;10.874;2023-09-18T02:10:04;101329.19;;;17.01;74.27
80781;BME280;70341;56.408;10.874;2023-09-18T02:12:31;101332.06;;;17.04;74.32
80781;BME280;70341;56.408;10.874;2023-09-18T02:14:59;101326.47;;;17.08;74.53
80781;BME280;70341;56.408;10.874;2023-09-18T02:17:26;101341.91;;;17.11;73.95
80781;BME280;70341;56.408;10.874;2023-09-18T02:19:53;101347.55;;;17.13;73.91
80781;BME280;70341;56.408;10.874;2023-09-18T02:22:21;101343.03;;;17.14;74.03
80781;BME280;70341;56.408;10.874;2023-09-18T02:24:48;101344.86;;;17.16;74.16
80781;BME280;70341;56.408;10.874;2023-09-18T02:27:15;101352.94;;;17.19;74.42
80781;BME280;70341;56.408;10.874;2023-09-18T02:29:46;101340.86;;;17.23;74.40
80781;BME280;70341;56.408;10.874;2023-09-18T02:32:13;101342.77;;;17.25;74.38
80781;BME280;70341;56.408;10.874;2023-09-18T02:34:40;101338.28;;;17.27;74.03
80781;BME280;70341;56.408;10.874;2023-09-18T02:37:09;101346.31;;;17.31;74.64
80781;BME280;70341;56.408;10.874;2023-09-18T02:39:36;101336.04;;;17.35;74.53
80781;BME280;70341;56.408;10.874;2023-09-18T02:42:03;101337.73;;;17.37;74.48
80781;BME280;70341;56.408;10.874;2023-09-18T02:44:31;101345.10;;;17.37;74.43
80781;BME280;70341;56.408;10.874;2023-09-18T02:46:58;101328.04;;;17.39;74.38
80781;BME280;70341;56.408;10.874;2023-09-18T02:49:25;101327.60;;;17.41;74.54
80781;BME280;70341;56.408;10.874;2023-09-18T02:51:53;101321.54;;;17.43;74.35
80781;BME280;70341;56.408;10.874;2023-09-18T02:54:20;101325.72;;;17.43;74.19
80781;BME280;70341;56.408;10.874;2023-09-18T02:56:47;101311.96;;;17.41;74.18
80781;BME280;70341;56.408;10.874;2023-09-18T02:59:15;101312.69;;;17.44;74.21
80781;BME280;70341;56.408;10.874;2023-09-18T03:01:42;101324.04;;;17.47;74.21
80781;BME280;70341;56.408;10.874;2023-09-18T03:04:09;101321.36;;;17.50;74.25
80781;BME280;70341;56.408;10.874;2023-09-18T03:06:38;101314.30;;;17.50;74.44
80781;BME280;70341;56.408;10.874;2023-09-18T03:09:05;101318.81;;;17.53;74.94
80781;BME280;70341;56.408;10.874;2023-09-18T03:11:32;101314.48;;;17.56;75.03
80781;BME280;70341;56.408;10.874;2023-09-18T03:14:00;101301.42;;;17.58;75.06
80781;BME280;70341;56.408;10.874;2023-09-18T03:16:27;101287.61;;;17.61;75.32
80781;BME280;70341;56.408;10.874;2023-09-18T03:18:54;101274.27;;;17.62;75.53
80781;BME280;70341;56.408;10.874;2023-09-18T03:21:23;101259.38;;;17.64;75.48
80781;BME280;70341;56.408;10.874;2023-09-18T03:23:50;101242.41;;;17.65;75.53
80781;BME280;70341;56.408;10.874;2023-09-18T03:26:16;101241.80;;;17.63;75.52
80781;BME280;70341;56.408;10.874;2023-09-18T03:28:45;101235.67;;;17.61;75.35
80781;BME280;70341;56.408;10.874;2023-09-18T03:31:11;101225.58;;;17.59;75.66
80781;BME280;70341;56.408;10.874;2023-09-18T03:33:38;101226.66;;;17.58;75.70
80781;BME280;70341;56.408;10.874;2023-09-18T03:36:07;101213.70;;;17.58;75.75
80781;BME280;70341;56.408;10.874;2023-09-18T03:38:33;101214.66;;;17.58;75.70
80781;BME280;70341;56.408;10.874;2023-09-18T03:41:00;101205.14;;;17.57;75.98
80781;BME280;70341;56.408;10.874;2023-09-18T03:43:29;101198.60;;;17.59;75.85
80781;BME280;70341;56.408;10.874;2023-09-18T03:46:04;101187.73;;;17.60;75.80
80781;BME280;70341;56.408;10.874;2023-09-18T03:48:34;101171.44;;;17.59;75.87
80781;BME280;70341;56.408;10.874;2023-09-18T03:51:00;101164.00;;;17.57;76.36
80781;BME280;70341;56.408;10.874;2023-09-18T03:53:30;101155.02;;;17.58;76.63
80781;BME280;70341;56.408;10.874;2023-09-18T03:55:57;101153.70;;;17.58;76.47
80781;BME280;70341;56.408;10.874;2023-09-18T03:58:24;101151.86;;;17.59;76.68
80781;BME280;70341;56.408;10.874;2023-09-18T04:00:53;101145.42;;;17.58;76.86
80781;BME280;70341;56.408;10.874;2023-09-18T04:03:20;101135.21;;;17.58;77.12
80781;BME280;70341;56.408;10.874;2023-09-18T04:05:47;101137.39;;;17.57;77.31
80781;BME280;70341;56.408;10.874;2023-09-18T04:08:15;101121.08;;;17.56;77.55
80781;BME280;70341;56.408;10.874;2023-09-18T04:10:42;101133.54;;;17.56;77.49
80781;BME280;70341;56.408;10.874;2023-09-18T04:13:09;101126.87;;;17.53;77.45
80781;BME280;70341;56.408;10.874;2023-09-18T04:15:37;101122.11;;;17.52;77.99
80781;BME280;70341;56.408;10.874;2023-09-18T04:18:05;101117.09;;;17.52;77.65
80781;BME280;70341;56.408;10.874;2023-09-18T04:20:32;101120.20;;;17.51;77.88
80781;BME280;70341;56.408;10.874;2023-09-18T04:25:52;101125.45;;;17.53;77.83
80781;BME280;70341;56.408;10.874;2023-09-18T04:28:22;101111.59;;;17.53;78.30
80781;BME280;70341;56.408;10.874;2023-09-18T04:30:50;101120.11;;;17.55;78.01
80781;BME280;70341;56.408;10.874;2023-09-18T04:33:17;101122.77;;;17.58;77.93
80781;BME280;70341;56.408;10.874;2023-09-18T04:35:44;101115.58;;;17.61;78.09
80781;BME280;70341;56.408;10.874;2023-09-18T04:38:13;101105.85;;;17.62;78.09
80781;BME280;70341;56.408;10.874;2023-09-18T04:40:40;101109.34;;;17.61;78.38
80781;BME280;70341;56.408;10.874;2023-09-18T04:43:08;101116.52;;;17.63;78.33
80781;BME280;70341;56.408;10.874;2023-09-18T04:45:37;101085.27;;;17.66;78.21
80781;BME280;70341;56.408;10.874;2023-09-18T04:48:04;101102.95;;;17.68;77.97
80781;BME280;70341;56.408;10.874;2023-09-18T04:50:32;101100.69;;;17.70;77.99
80781;BME280;70341;56.408;10.874;2023-09-18T04:53:00;101105.29;;;17.74;77.89
80781;BME280;70341;56.408;10.874;2023-09-18T04:55:27;101101.49;;;17.77;78.05
80781;BME280;70341;56.408;10.874;2023-09-18T04:57:54;101107.56;;;17.80;77.78
80781;BME280;70341;56.408;10.874;2023-09-18T05:00:22;101109.05;;;17.82;77.85
80781;BME280;70341;56.408;10.874;2023-09-18T05:02:49;101091.67;;;17.84;77.69
80781;BME280;70341;56.408;10.874;2023-09-18T05:05:16;101087.90;;;17.87;77.68
80781;BME280;70341;56.408;10.874;2023-09-18T05:07:44;101084.27;;;17.90;77.75
80781;BME280;70341;56.408;10.874;2023-09-18T05:10:11;101074.85;;;17.94;77.35
80781;BME280;70341;56.408;10.874;2023-09-18T05:12:39;101075.40;;;17.96;77.56
80781;BME280;70341;56.408;10.874;2023-09-18T05:15:08;101071.98;;;17.97;77.40
80781;BME280;70341;56.408;10.874;2023-09-18T05:17:47;101071.79;;;17.96;77.58
80781;BME280;70341;56.408;10.874;2023-09-18T05:20:16;101062.45;;;18.00;77.73
80781;BME280;70341;56.408;10.874;2023-09-18T05:22:45;101054.33;;;18.00;77.84
80781;BME280;70341;56.408;10.874;2023-09-18T05:25:13;101048.05;;;18.00;77.80
80781;BME280;70341;56.408;10.874;2023-09-18T05:27:41;101045.66;;;18.01;77.64
80781;BME280;70341;56.408;10.874;2023-09-18T05:30:13;101047.55;;;18.04;77.63
80781;BME280;70341;56.408;10.874;2023-09-18T05:32:43;101042.53;;;18.07;77.34
80781;BME280;70341;56.408;10.874;2023-09-18T05:35:10;101040.93;;;18.09;77.47
80781;BME280;70341;56.408;10.874;2023-09-18T05:37:37;101039.94;;;18.11;77.32
80781;BME280;70341;56.408;10.874;2023-09-18T05:40:09;101039.20;;;18.14;77.30
80781;BME280;70341;56.408;10.874;2023-09-18T05:42:38;101034.38;;;18.16;77.32
80781;BME280;70341;56.408;10.874;2023-09-18T05:45:07;101031.42;;;18.17;77.33
80781;BME280;70341;56.408;10.874;2023-09-18T05:47:35;101030.30;;;18.17;77.45
80781;BME280;70341;56.408;10.874;2023-09-18T05:50:02;101029.61;;;18.17;77.60
80781;BME280;70341;56.408;10.874;2023-09-18T05:52:31;101021.90;;;18.17;77.44
80781;BME280;70341;56.408;10.874;2023-09-18T05:54:57;101022.27;;;18.19;77.45
80781;BME280;70341;56.408;10.874;2023-09-18T05:57:24;101022.19;;;18.20;77.52
80781;BME280;70341;56.408;10.874;2023-09-18T05:59:55;101022.88;;;18.21;77.69
80781;BME280;70341;56.408;10.874;2023-09-18T06:02:23;101020.27;;;18.20;78.00
80781;BME280;70341;56.408;10.874;2023-09-18T06:04:56;101015.13;;;18.21;77.79
80781;BME280;70341;56.408;10.874;2023-09-18T06:07:27;101008.64;;;18.24;77.67
80781;BME280;70341;56.408;10.874;2023-09-18T06:09:57;101004.64;;;18.27;77.79
80781;BME280;70341;56.408;10.874;2023-09-18T06:12:24;101011.20;;;18.29;77.69
80781;BME280;70341;56.408;10.874;2023-09-18T06:14:51;101001.65;;;18.29;77.78
80781;BME280;70341;56.408;10.874;2023-09-18T06:17:20;100994.03;;;18.33;77.49
80781;BME280;70341;56.408;10.874;2023-09-18T06:19:47;100990.09;;;18.37;77.33
80781;BME280;70341;56.408;10.874;2023-09-18T06:22:14;100984.52;;;18.43;77.38
80781;BME280;70341;56.408;10.874;2023-09-18T06:24:43;100981.70;;;18.47;77.18
80781;BME280;70341;56.408;10.874;2023-09-18T06:27:09;100979.08;;;18.51;77.00
80781;BME280;70341;56.408;10.874;2023-09-18T06:29:36;100975.44;;;18.59;76.79
80781;BME280;70341;56.408;10.874;2023-09-18T06:32:04;100969.17;;;18.69;76.26
80781;BME280;70341;56.408;10.874;2023-09-18T06:34:31;100961.70;;;18.81;75.76
80781;BME280;70341;56.408;10.874;2023-09-18T06:36:58;100967.64;;;18.89;75.59
80781;BME280;70341;56.408;10.874;2023-09-18T06:39:26;100968.08;;;18.98;75.47
80781;BME280;70341;56.408;10.874;2023-09-18T06:41:53;100969.22;;;19.07;75.17
80781;BME280;70341;56.408;10.874;2023-09-18T06:44:20;100963.93;;;19.12;74.86
80781;BME280;70341;56.408;10.874;2023-09-18T06:46:48;100960.94;;;19.17;74.72
80781;BME280;70341;56.408;10.874;2023-09-18T06:49:15;100960.89;;;19.20;74.42
80781;BME280;70341;56.408;10.874;2023-09-18T06:51:42;100958.58;;;19.22;74.40
80781;BME280;70341;56.408;10.874;2023-09-18T06:54:11;100955.95;;;19.21;74.27
80781;BME280;70341;56.408;10.874;2023-09-18T06:56:38;100945.17;;;19.21;74.31
80781;BME280;70341;56.408;10.874;2023-09-18T06:59:05;100944.16;;;19.20;74.37
80781;BME280;70341;56.408;10.874;2023-09-18T07:01:33;100950.05;;;19.23;74.38
80781;BME280;70341;56.408;10.874;2023-09-18T07:04:00;100945.24;;;19.27;74.24
80781;BME280;70341;56.408;10.874;2023-09-18T07:06:28;100942.73;;;19.29;74.16
80781;BME280;70341;56.408;10.874;2023-09-18T07:08:56;100946.36;;;19.29;74.11
80781;BME280;70341;56.408;10.874;2023-09-18T07:11:23;100941.51;;;19.29;74.20
80781;BME280;70341;56.408;10.874;2023-09-18T07:13:55;100948.28;;;19.27;74.11
80781;BME280;70341;56.408;10.874;2023-09-18T07:16:22;100954.00;;;19.28;74.20
80781;BME280;70341;56.408;10.874;2023-09-18T07:18:48;100950.19;;;19.28;74.19
80781;BME280;70341;56.408;10.874;2023-09-18T07:21:16;100947.92;;;19.27;74.14
80781;BME280;70341;56.408;10.874;2023-09-18T07:23:43;100935.93;;;19.26;74.25
80781;BME280;70341;56.408;10.874;2023-09-18T07:26:10;100936.95;;;19.22;74.26
80781;BME280;70341;56.408;10.874;2023-09-18T07:28:38;100925.83;;;19.17;74.55
80781;BME280;70341;56.408;10.874;2023-09-18T07:31:07;100922.82;;;19.16;74.63
80781;BME280;70341;56.408;10.874;2023-09-18T07:33:34;100918.23;;;19.14;74.77
80781;BME280;70341;56.408;10.874;2023-09-18T07:36:03;100900.66;;;19.21;74.66
80781;BME280;70341;56.408;10.874;2023-09-18T07:38:31;100902.29;;;19.25;74.39
80781;BME280;70341;56.408;10.874;2023-09-18T07:40:58;100905.52;;;19.30;74.19
80781;BME280;70341;56.408;10.874;2023-09-18T07:43:26;100895.64;;;19.35;74.11
80781;BME280;70341;56.408;10.874;2023-09-18T07:45:53;100886.48;;;19.32;74.38
80781;BME280;70341;56.408;10.874;2023-09-18T07:48:22;100881.04;;;19.32;74.30
80781;BME280;70341;56.408;10.874;2023-09-18T07:50:50;100879.92;;;19.35;74.19
80781;BME280;70341;56.408;10.874;2023-09-18T07:53:19;100872.77;;;19.42;74.04
80781;BME280;70341;56.408;10.874;2023-09-18T07:55:57;100878.89;;;19.46;73.72
80781;BME280;70341;56.408;10.874;2023-09-18T07:58:25;100876.02;;;19.54;73.61
80781;BME280;70341;56.408;10.874;2023-09-18T08:00:52;100859.58;;;19.57;73.26
80781;BME280;70341;56.408;10.874;2023-09-18T08:03:19;100868.36;;;19.60;73.27
80781;BME280;70341;56.408;10.874;2023-09-18T08:05:53;100857.58;;;19.62;73.39
80781;BME280;70341;56.408;10.874;2023-09-18T08:08:21;100855.77;;;19.59;73.46
80781;BME280;70341;56.408;10.874;2023-09-18T08:10:51;100851.46;;;19.61;73.25
80781;BME280;70341;56.408;10.874;2023-09-18T08:13:19;100837.67;;;19.65;73.21
80781;BME280;70341;56.408;10.874;2023-09-18T08:15:47;100834.84;;;19.67;73.11
80781;BME280;70341;56.408;10.874;2023-09-18T08:18:14;100831.73;;;19.70;73.07
80781;BME280;70341;56.408;10.874;2023-09-18T08:20:45;100833.94;;;19.71;73.19
80781;BME280;70341;56.408;10.874;2023-09-18T08:23:13;100829.61;;;19.76;73.19
80781;BME280;70341;56.408;10.874;2023-09-18T08:25:40;100821.73;;;19.75;73.22
80781;BME280;70341;56.408;10.874;2023-09-18T08:28:07;100824.88;;;19.79;73.16
80781;BME280;70341;56.408;10.874;2023-09-18T08:30:37;100823.60;;;19.86;72.83
80781;BME280;70341;56.408;10.874;2023-09-18T08:33:04;100826.19;;;19.97;72.42
80781;BME280;70341;56.408;10.874;2023-09-18T08:35:31;100826.80;;;20.08;72.07
80781;BME280;70341;56.408;10.874;2023-09-18T08:38:00;100816.00;;;20.23;71.72
80781;BME280;70341;56.408;10.874;2023-09-18T08:40:27;100810.08;;;20.34;71.27
80781;BME280;70341;56.408;10.874;2023-09-18T08:42:56;100807.23;;;20.41;70.90
80781;BME280;70341;56.408;10.874;2023-09-18T08:45:40;100807.08;;;20.47;70.86
80781;BME280;70341;56.408;10.874;2023-09-18T08:48:11;100795.73;;;20.74;70.25
80781;BME280;70341;56.408;10.874;2023-09-18T08:50:40;100795.89;;;21.09;68.78
80781;BME280;70341;56.408;10.874;2023-09-18T08:53:10;100779.27;;;21.31;68.35
80781;BME280;70341;56.408;10.874;2023-09-18T08:55:37;100781.56;;;21.42;67.60
80781;BME280;70341;56.408;10.874;2023-09-18T08:58:06;100778.86;;;21.44;67.33
80781;BME280;70341;56.408;10.874;2023-09-18T09:00:37;100770.11;;;21.44;67.11
80781;BME280;70341;56.408;10.874;2023-09-18T09:03:04;100767.31;;;21.56;66.96
80781;BME280;70341;56.408;10.874;2023-09-18T09:05:33;100754.68;;;21.65;66.60
80781;BME280;70341;56.408;10.874;2023-09-18T09:08:01;100747.95;;;21.65;66.51
80781;BME280;70341;56.408;10.874;2023-09-18T09:10:28;100735.68;;;21.71;66.61
80781;BME280;70341;56.408;10.874;2023-09-18T09:12:57;100727.83;;;21.80;66.06
80781;BME280;70341;56.408;10.874;2023-09-18T09:15:42;100717.88;;;21.88;65.23
80781;BME280;70341;56.408;10.874;2023-09-18T09:18:12;100711.95;;;21.94;65.16
80781;BME280;70341;56.408;10.874;2023-09-18T09:20:39;100711.69;;;21.93;65.41
80781;BME280;70341;56.408;10.874;2023-09-18T09:23:09;100709.79;;;22.04;65.40
80781;BME280;70341;56.408;10.874;2023-09-18T09:25:37;100707.04;;;22.21;65.03
80781;BME280;70341;56.408;10.874;2023-09-18T09:28:07;100711.67;;;22.36;64.57
80781;BME280;70341;56.408;10.874;2023-09-18T09:30:35;100709.52;;;22.53;63.91
80781;BME280;70341;56.408;10.874;2023-09-18T09:33:05;100693.86;;;22.48;63.95
80781;BME280;70341;56.408;10.874;2023-09-18T09:35:37;100693.71;;;22.24;64.45
80781;BME280;70341;56.408;10.874;2023-09-18T09:38:12;100698.56;;;22.08;64.94
80781;BME280;70341;56.408;10.874;2023-09-18T09:40:43;100686.90;;;22.00;65.21
80781;BME280;70341;56.408;10.874;2023-09-18T09:43:13;100674.84;;;21.96;65.55
80781;BME280;70341;56.408;10.874;2023-09-18T09:45:42;100667.98;;;21.96;65.74
80781;BME280;70341;56.408;10.874;2023-09-18T09:48:09;100646.38;;;21.94;65.69
80781;BME280;70341;56.408;10.874;2023-09-18T09:50:48;100648.15;;;21.93;65.59
80781;BME280;70341;56.408;10.874;2023-09-18T09:53:18;100642.96;;;21.98;65.72
80781;BME280;70341;56.408;10.874;2023-09-18T09:55:54;100638.88;;;22.12;65.41
80781;BME280;70341;56.408;10.874;2023-09-18T09:58:27;100630.83;;;22.17;64.93
80781;BME280;70341;56.408;10.874;2023-09-18T10:00:58;100623.02;;;22.47;64.16
80781;BME280;70341;56.408;10.874;2023-09-18T10:03:32;100610.46;;;23.06;62.46
80781;BME280;70341;56.408;10.874;2023-09-18T10:06:03;100605.23;;;23.57;60.99
80781;BME280;70341;56.408;10.874;2023-09-18T10:08:33;100596.30;;;24.43;58.37
80781;BME280;70341;56.408;10.874;2023-09-18T10:11:07;100592.20;;;25.26;55.94
80781;BME280;70341;56.408;10.874;2023-09-18T10:13:48;100586.64;;;26.26;53.35
80781;BME280;70341;56.408;10.874;2023-09-18T10:16:23;100582.75;;;27.24;50.46
80781;BME280;70341;56.408;10.874;2023-09-18T10:22:23;100575.16;;;28.92;45.87
80781;BME280;70341;56.408;10.874;2023-09-18T10:25:04;100577.80;;;29.25;44.07
80781;BME280;70341;56.408;10.874;2023-09-18T10:27:39;100568.79;;;29.30;44.07
80781;BME280;70341;56.408;10.874;2023-09-18T10:30:09;100565.31;;;29.00;44.82
80781;BME280;70341;56.408;10.874;2023-09-18T10:32:40;100562.16;;;28.16;46.03
80781;BME280;70341;56.408;10.874;2023-09-18T10:35:07;100555.48;;;27.60;48.07
80781;BME280;70341;56.408;10.874;2023-09-18T10:37:37;100541.52;;;27.34;48.74
80781;BME280;70341;56.408;10.874;2023-09-18T10:40:12;100537.05;;;26.73;50.10
80781;BME280;70341;56.408;10.874;2023-09-18T10:42:42;100534.09;;;26.10;51.64
80781;BME280;70341;56.408;10.874;2023-09-18T10:45:11;100517.78;;;25.52;53.12
80781;BME280;70341;56.408;10.874;2023-09-18T10:47:44;100516.03;;;24.94;54.71
80781;BME280;70341;56.408;10.874;2023-09-18T10:50:11;100508.25;;;24.50;55.78
80781;BME280;70341;56.408;10.874;2023-09-18T10:52:44;100499.46;;;24.18;56.98
80781;BME280;70341;56.408;10.874;2023-09-18T10:55:16;100497.31;;;23.86;57.92
80781;BME280;70341;56.408;10.874;2023-09-18T10:57:55;100486.52;;;23.65;58.92
80781;BME280;70341;56.408;10.874;2023-09-18T11:00:29;100484.87;;;23.63;59.35
80781;BME280;70341;56.408;10.874;2023-09-18T11:03:17;100479.90;;;23.69;59.41
80781;BME280;70341;56.408;10.874;2023-09-18T11:05:46;100473.20;;;23.88;58.80
80781;BME280;70341;56.408;10.874;2023-09-18T11:08:32;100472.75;;;23.94;58.71
80781;BME280;70341;56.408;10.874;2023-09-18T11:11:09;100455.17;;;24.06;58.68
80781;BME280;70341;56.408;10.874;2023-09-18T11:13:44;100457.35;;;24.15;58.10
80781;BME280;70341;56.408;10.874;2023-09-18T11:21:29;100442.27;;;24.80;56.94
80781;BME280;70341;56.408;10.874;2023-09-18T11:24:20;100436.86;;;25.16;55.66
80781;BME280;70341;56.408;10.874;2023-09-18T11:26:50;100429.96;;;25.53;55.15
80781;BME280;70341;56.408;10.874;2023-09-18T11:29:22;100427.92;;;25.84;53.80
80781;BME280;70341;56.408;10.874;2023-09-18T11:31:53;100412.20;;;25.88;53.67
80781;BME280;70341;56.408;10.874;2023-09-18T11:34:27;100420.45;;;25.65;54.10
80781;BME280;70341;56.408;10.874;2023-09-18T11:36:55;100408.16;;;25.44;54.65
80781;BME280;70341;56.408;10.874;2023-09-18T11:42:12;100399.12;;;25.25;55.34
80781;BME280;70341;56.408;10.874;2023-09-18T11:44:41;100390.83;;;25.18;55.45
80781;BME280;70341;56.408;10.874;2023-09-18T11:47:16;100390.05;;;25.18;55.28
80781;BME280;70341;56.408;10.874;2023-09-18T11:49:58;100387.47;;;25.14;55.63
80781;BME280;70341;56.408;10.874;2023-09-18T11:52:29;100393.80;;;24.99;55.86
80781;BME280;70341;56.408;10.874;2023-09-18T11:54:59;100389.54;;;24.84;56.32
80781;BME280;70341;56.408;10.874;2023-09-18T11:57:28;100377.27;;;24.65;56.82
80781;BME280;70341;56.408;10.874;2023-09-18T11:59:55;100374.30;;;24.40;57.48
80781;BME280;70341;56.408;10.874;2023-09-18T12:02:30;100375.23;;;24.10;58.26
80781;BME280;70341;56.408;10.874;2023-09-18T12:05:05;100370.30;;;23.75;59.17
80781;BME280;70341;56.408;10.874;2023-09-18T12:07:32;100372.73;;;23.47;60.03
80781;BME280;70341;56.408;10.874;2023-09-18T12:10:04;100374.23;;;23.28;60.45
80781;BME280;70341;56.408;10.874;2023-09-18T12:12:38;100346.82;;;23.07;61.29
80781;BME280;70341;56.408;10.874;2023-09-18T12:15:06;100336.89;;;22.92;61.80
80781;BME280;70341;56.408;10.874;2023-09-18T12:17:33;100338.42;;;22.79;62.35
80781;BME280;70341;56.408;10.874;2023-09-18T12:20:01;100338.92;;;22.71;62.59
80781;BME280;70341;56.408;10.874;2023-09-18T12:22:30;100339.56;;;22.64;63.04
80781;BME280;70341;56.408;10.874;2023-09-18T12:25:15;100329.95;;;22.59;63.10
80781;BME280;70341;56.408;10.874;2023-09-18T12:27:45;100307.27;;;22.48;63.32
80781;BME280;70341;56.408;10.874;2023-09-18T12:30:13;100308.59;;;22.42;63.88
80781;BME280;70341;56.408;10.874;2023-09-18T12:32:40;100316.67;;;22.26;64.27
80781;BME280;70341;56.408;10.874;2023-09-18T12:35:09;100314.64;;;22.15;64.94
80781;BME280;70341;56.408;10.874;2023-09-18T12:37:40;100322.13;;;22.10;65.04
80781;BME280;70341;56.408;10.874;2023-09-18T12:40:29;100329.43;;;22.03;64.97
80781;BME280;70341;56.408;10.874;2023-09-18T12:42:59;100311.55;;;21.96;65.10
80781;BME280;70341;56.408;10.874;2023-09-18T12:45:27;100319.27;;;21.87;65.26
80781;BME280;70341;56.408;10.874;2023-09-18T12:47:58;100311.97;;;21.76;65.14
80781;BME280;70341;56.408;10.874;2023-09-18T12:50:26;100318.11;;;21.70;65.23
80781;BME280;70341;56.408;10.874;2023-09-18T12:53:12;100322.71;;;21.67;65.12
80781;BME280;70341;56.408;10.874;2023-09-18T12:55:41;100323.09;;;21.67;65.05
80781;BME280;70341;56.408;10.874;2023-09-18T12:58:12;100311.83;;;21.66;65.05
80781;BME280;70341;56.408;10.874;2023-09-18T13:00:49;100312.27;;;21.61;65.20
80781;BME280;70341;56.408;10.874;2023-09-18T13:03:17;100308.05;;;21.58;65.51
80781;BME280;70341;56.408;10.874;2023-09-18T13:05:45;100299.58;;;21.56;65.69